Leopold, Missouri
Current Conditions -  °F | °C
As of 4:53 AM on Friday 28 Nov 2014 (Local Time) from KCGI Reporting Station
Clear Clear  
Wind Chill: 23°   Ceiling: Unl
Heat Index: 28°   Visibility: 7mi
Dew Point: 25°   Wind: 5mph
Humidity: 88%   Direction: 170°S
Pressure: 30.4"   Gusts: NA
Location:  37.26°N, 89.93°W
Report Text: KCGI 281053Z AUTO 17004KT 7SM CLR M02/M04 A3040 RMK AO2 SLP296 T10221039 TSNO
Loading
Personal Weather Stations






























Interactive Weather Map New forecast layout! Learn more

10-Day Weather Forecast

Advertisements
Track Severe Weather on mobile